Time;durP1;ratioP1;P1;durP2;ratioP2;P2;SDS_P1;SDS_P2;PMS_P1;PMS_P2;Temp;Humidity;BMP_temperature;BMP_pressure;BME280_temperature;BME280_humidity;BME280_pressure;Samples;Min_cycle;Max_cycle;Signal;HPM_P1;HPM_P2
2022/09/13 00:02:27;;;;;;;;;11.00;11.00;28.80;99.90;;;;;;4954869;28;9708;-67
2022/09/13 00:04:58;;;;;;;;;10.20;10.20;28.80;99.90;;;;;;4957964;28;8843;-66
2022/09/13 00:07:32;;;;;;;;;7.80;6.00;28.70;99.90;;;;;;4955432;28;8942;-66
2022/09/13 00:10:06;;;;;;;;;9.40;9.40;28.70;99.90;;;;;;4950053;28;8838;-68
2022/09/13 00:12:36;;;;;;;;;7.60;7.60;28.80;99.90;;;;;;4947286;28;8859;-67
2022/09/13 00:15:07;;;;;;;;;7.60;7.00;28.70;99.90;;;;;;4950295;28;8933;-67
2022/09/13 00:17:37;;;;;;;;;10.20;10.20;28.70;99.90;;;;;;4982268;28;8835;-67
2022/09/13 00:20:08;;;;;;;;;8.00;8.00;28.70;99.90;;;;;;4957017;28;8850;-64
2022/09/13 00:22:39;;;;;;;;;10.60;10.60;28.60;99.90;;;;;;4979663;28;8851;-66
2022/09/13 00:25:11;;;;;;;;;10.60;10.60;28.60;99.90;;;;;;4956105;28;8861;-65
2022/09/13 00:27:47;;;;;;;;;8.40;8.40;28.60;99.90;;;;;;4950425;28;8862;-65
2022/09/13 00:30:17;;;;;;;;;9.00;9.00;28.60;99.90;;;;;;4951878;28;8842;-65
2022/09/13 00:32:48;;;;;;;;;10.00;10.00;28.60;99.90;;;;;;4981602;28;8815;-66
2022/09/13 00:35:20;;;;;;;;;9.00;9.00;28.60;99.90;;;;;;4958056;28;8831;-68
2022/09/13 00:37:51;;;;;;;;;10.00;10.00;28.50;99.90;;;;;;4950752;28;8843;-67
2022/09/13 00:40:22;;;;;;;;;9.80;9.80;28.50;99.90;;;;;;4953242;28;8863;-67
2022/09/13 00:42:52;;;;;;;;;10.60;10.60;28.40;99.90;;;;;;4949657;28;8850;-68
2022/09/13 00:45:22;;;;;;;;;9.00;9.00;28.40;99.90;;;;;;4950103;28;10012;-68
2022/09/13 00:48:06;;;;;;;;;9.00;9.00;28.40;99.90;;;;;;4943121;28;8957;-67
2022/09/13 00:50:46;;;;;;;;;10.20;10.20;28.30;99.90;;;;;;4950626;28;10176;-65
2022/09/13 00:53:35;;;;;;;;;9.80;9.80;28.30;99.90;;;;;;4940670;28;10135;-65
2022/09/13 00:56:44;;;;;;;;;8.00;8.00;28.20;99.90;;;;;;4951464;28;8858;-65
2022/09/13 00:59:24;;;;;;;;;10.00;10.00;28.20;99.90;;;;;;4956532;28;8862;-66
2022/09/13 01:01:57;;;;;;;;;11.40;11.40;28.10;99.90;;;;;;4953924;28;8889;-66
2022/09/13 01:04:29;;;;;;;;;7.00;7.00;28.00;99.90;;;;;;4952974;28;8874;-65
2022/09/13 01:07:05;;;;;;;;;8.60;8.60;28.00;99.90;;;;;;4956437;28;8842;-66
2022/09/13 01:09:45;;;;;;;;;10.20;10.20;27.90;99.90;;;;;;4953025;28;8867;-65
2022/09/13 01:12:27;;;;;;;;;9.60;9.60;27.90;99.90;;;;;;4982831;28;8974;-65
2022/09/13 01:15:00;;;;;;;;;6.25;6.25;27.90;99.90;;;;;;4952263;28;8905;-68
2022/09/13 01:17:34;;;;;;;;;10.00;10.00;27.80;99.90;;;;;;4952228;28;8875;-67
2022/09/13 01:20:05;;;;;;;;;8.50;8.50;27.80;99.90;;;;;;4955052;28;8879;-68
2022/09/13 01:23:05;;;;;;;;;11.00;11.00;27.70;99.90;;;;;;4958839;28;8901;-67
2022/09/13 01:26:16;;;;;;;;;11.00;11.00;27.70;99.90;;;;;;4980004;28;8886;-66
2022/09/13 01:29:00;;;;;;;;;10.50;10.50;27.60;99.90;;;;;;4981734;28;8851;-65
2022/09/13 01:31:35;;;;;;;;;9.80;9.80;27.40;99.90;;;;;;4956324;28;8874;-68
2022/09/13 01:34:30;;;;;;;;;12.00;12.00;27.30;99.90;;;;;;4957089;28;8834;-66
2022/09/13 01:37:11;;;;;;;;;10.80;10.80;27.20;99.90;;;;;;4954732;28;8867;-69
2022/09/13 01:40:06;;;;;;;;;11.75;11.75;27.30;99.90;;;;;;4947613;28;8890;-65
2022/09/13 01:43:06;;;;;;;;;9.40;9.40;27.30;99.90;;;;;;4948237;28;9024;-67
2022/09/13 01:45:48;;;;;;;;;10.50;10.50;27.20;99.90;;;;;;4962725;28;8854;-67
2022/09/13 01:48:51;;;;;;;;;11.50;11.50;27.10;99.90;;;;;;4951385;28;8875;-68
2022/09/13 01:51:36;;;;;;;;;10.60;10.60;27.00;99.90;;;;;;4962189;28;8854;-67
2022/09/13 01:54:32;;;;;;;;;9.00;9.00;27.10;99.90;;;;;;4960480;28;8913;-65
2022/09/13 01:57:27;;;;;;;;;10.00;10.00;27.20;99.90;;;;;;4981255;28;8830;-66
2022/09/13 02:00:11;;;;;;;;;10.00;10.00;27.20;99.90;;;;;;4949451;28;8850;-67
2022/09/13 02:03:03;;;;;;;;;10.50;10.50;27.20;99.90;;;;;;4959349;28;8891;-68
2022/09/13 02:05:46;;;;;;;;;9.20;9.20;27.20;99.90;;;;;;4953357;28;8947;-66
2022/09/13 02:08:27;;;;;;;;;10.75;10.75;27.20;99.90;;;;;;4950438;28;8851;-67
2022/09/13 02:11:15;;;;;;;;;9.00;9.00;27.20;99.90;;;;;;4956949;28;8847;-69
2022/09/13 02:14:10;;;;;;;;;10.00;10.00;27.10;99.90;;;;;;4958787;28;8842;-68
2022/09/13 02:16:56;;;;;;;;;12.25;12.25;27.10;99.90;;;;;;4951069;28;8866;-67
2022/09/13 02:19:39;;;;;;;;;11.00;11.00;27.10;99.90;;;;;;4954615;28;8882;-68
2022/09/13 02:22:14;;;;;;;;;11.25;11.25;27.00;99.90;;;;;;4969411;28;8997;-67
2022/09/13 02:24:48;;;;;;;;;13.00;13.00;27.00;99.90;;;;;;4981740;28;8858;-68
2022/09/13 02:27:24;;;;;;;;;12.00;12.00;27.00;99.90;;;;;;4956674;28;8978;-66
2022/09/13 02:30:11;;;;;;;;;12.50;12.50;26.90;99.90;;;;;;4974488;28;9027;-67
2022/09/13 02:33:07;;;;;;;;;10.00;10.00;26.90;99.90;;;;;;4954977;28;8915;-68
2022/09/13 02:35:48;;;;;;;;;10.00;10.00;26.80;99.90;;;;;;4957297;28;8867;-67
2022/09/13 02:38:27;;;;;;;;;12.00;12.00;26.80;99.90;;;;;;4955115;28;8881;-68
2022/09/13 02:41:19;;;;;;;;;10.00;10.00;26.80;99.90;;;;;;4954500;28;8862;-68
2022/09/13 02:43:59;;;;;;;;;12.00;12.00;26.60;99.90;;;;;;4957924;28;8989;-69
2022/09/13 02:46:52;;;;;;;;;11.00;11.00;26.50;99.90;;;;;;4955944;28;8871;-67
2022/09/13 02:49:51;;;;;;;;;9.75;9.75;26.40;99.90;;;;;;4955525;28;8866;-68
2022/09/13 02:52:36;;;;;;;;;9.75;9.75;26.30;99.90;;;;;;4953811;28;8858;-65
2022/09/13 02:55:33;;;;;;;;;10.00;10.00;26.30;99.90;;;;;;4955853;28;9996;-68
2022/09/13 02:58:09;;;;;;;;;8.75;8.75;26.20;99.90;;;;;;4957372;28;9937;-69
2022/09/13 03:00:40;;;;;;;;;8.50;8.50;26.20;99.90;;;;;;4956482;28;9633;-69
2022/09/13 03:03:15;;;;;;;;;11.00;11.00;26.10;99.90;;;;;;4972536;28;9424;-68
2022/09/13 03:05:45;;;;;;;;;10.75;10.75;26.10;99.90;;;;;;4941507;28;8850;-67
2022/09/13 03:08:19;;;;;;;;;9.00;9.00;26.00;99.90;;;;;;4957629;28;8886;-67
2022/09/13 03:11:14;;;;;;;;;10.00;10.00;25.90;99.90;;;;;;4955730;28;8863;-66
2022/09/13 03:14:04;;;;;;;;;9.75;9.75;25.90;99.90;;;;;;4954981;28;8859;-67
2022/09/13 03:16:46;;;;;;;;;9.50;9.50;25.80;99.90;;;;;;4971881;28;8846;-66
2022/09/13 03:20:10;;;;;;;;;11.00;10.00;25.80;99.90;;;;;;4966254;28;8863;-64
2022/09/13 03:23:18;;;;;;;;;8.75;8.75;25.80;99.90;;;;;;4950732;28;8846;-65
2022/09/13 03:26:03;;;;;;;;;11.00;11.00;25.70;99.90;;;;;;4953497;28;8861;-67
2022/09/13 03:28:58;;;;;;;;;8.25;8.25;25.70;99.90;;;;;;4956176;28;9671;-66
2022/09/13 03:31:41;;;;;;;;;10.00;10.00;25.60;99.90;;;;;;4988585;28;9578;-65
2022/09/13 03:34:32;;;;;;;;;10.25;10.25;25.70;99.90;;;;;;4952014;28;8850;-65
2022/09/13 03:37:24;;;;;;;;;9.50;9.50;25.70;99.90;;;;;;4952145;28;8866;-68
2022/09/13 03:40:20;;;;;;;;;10.75;10.75;25.70;99.90;;;;;;4956908;28;8855;-70
2022/09/13 03:43:03;;;;;;;;;10.25;10.25;25.70;99.90;;;;;;4957802;28;8873;-68
2022/09/13 03:45:40;;;;;;;;;9.00;9.00;25.70;99.90;;;;;;4956163;28;8855;-71
2022/09/13 03:48:12;;;;;;;;;9.50;9.50;25.70;99.90;;;;;;4957510;28;9005;-68
2022/09/13 03:50:48;;;;;;;;;10.25;10.25;25.60;99.90;;;;;;4953776;28;8892;-68
2022/09/13 03:53:27;;;;;;;;;9.25;9.25;25.60;99.90;;;;;;4957664;28;8890;-67
2022/09/13 03:55:59;;;;;;;;;10.00;10.00;25.50;99.90;;;;;;4967265;28;9013;-65
2022/09/13 03:58:32;;;;;;;;;9.00;9.00;25.40;99.90;;;;;;4985756;28;8891;-65
2022/09/13 04:01:04;;;;;;;;;8.50;8.50;25.50;99.90;;;;;;4958968;28;8862;-66
2022/09/13 04:03:34;;;;;;;;;9.00;9.00;25.40;99.90;;;;;;4956998;28;8843;-65
2022/09/13 04:06:11;;;;;;;;;8.50;8.50;25.40;99.90;;;;;;4953280;28;8886;-65
2022/09/13 04:08:42;;;;;;;;;10.00;10.00;25.30;99.90;;;;;;4967713;28;8867;-65
2022/09/13 04:11:13;;;;;;;;;8.50;8.50;25.30;99.90;;;;;;4956145;28;8875;-68
2022/09/13 04:13:43;;;;;;;;;9.25;9.25;25.20;99.90;;;;;;4957641;28;8835;-67
2022/09/13 04:16:14;;;;;;;;;8.75;8.75;25.10;99.90;;;;;;4958150;28;8842;-67
2022/09/13 04:18:50;;;;;;;;;8.75;8.75;25.10;99.90;;;;;;4960995;28;8873;-67
2022/09/13 04:21:24;;;;;;;;;10.00;10.00;25.10;99.90;;;;;;4953230;28;9624;-67
2022/09/13 04:23:55;;;;;;;;;9.50;9.50;25.10;99.90;;;;;;4972677;28;8862;-67
2022/09/13 04:26:28;;;;;;;;;12.50;12.50;25.20;99.90;;;;;;4972122;28;8862;-67
2022/09/13 04:28:58;;;;;;;;;9.00;9.00;25.30;99.90;;;;;;4958595;28;9538;-67
2022/09/13 04:31:29;;;;;;;;;9.50;9.50;25.30;99.90;;;;;;4956694;28;8874;-68
2022/09/13 04:34:01;;;;;;;;;11.00;11.00;25.30;99.90;;;;;;4956055;28;8993;-68
2022/09/13 04:36:35;;;;;;;;;10.00;10.00;25.10;99.90;;;;;;4952675;28;8973;-65
2022/09/13 04:39:09;;;;;;;;;8.50;8.50;25.00;99.90;;;;;;4954295;28;8839;-65
2022/09/13 04:41:44;;;;;;;;;9.75;9.75;24.90;99.90;;;;;;4956964;28;8871;-65
2022/09/13 04:44:20;;;;;;;;;8.75;8.75;25.00;99.90;;;;;;4954515;28;8875;-65
2022/09/13 04:46:51;;;;;;;;;8.50;8.50;25.00;99.90;;;;;;4970245;28;8901;-68
2022/09/13 04:49:23;;;;;;;;;10.75;10.75;25.00;99.90;;;;;;4959616;28;8843;-68
2022/09/13 04:51:53;;;;;;;;;11.00;11.00;24.90;99.90;;;;;;4953193;28;8848;-68
2022/09/13 04:54:24;;;;;;;;;8.75;8.75;24.90;99.90;;;;;;4952224;28;8889;-68
2022/09/13 04:56:57;;;;;;;;;11.00;11.00;24.90;99.90;;;;;;4954733;28;8858;-67
2022/09/13 04:59:28;;;;;;;;;12.50;12.50;24.80;99.90;;;;;;4953673;28;8870;-65
2022/09/13 05:01:59;;;;;;;;;12.00;12.00;24.80;99.90;;;;;;4949355;28;8869;-65
2022/09/13 05:04:30;;;;;;;;;8.50;8.50;24.80;99.90;;;;;;4954926;28;8909;-65
2022/09/13 05:07:04;;;;;;;;;10.75;10.75;24.80;99.90;;;;;;4955699;28;8867;-65
2022/09/13 05:09:35;;;;;;;;;10.00;10.00;24.70;99.90;;;;;;4952232;28;8827;-65
2022/09/13 05:12:07;;;;;;;;;10.50;10.50;24.70;99.90;;;;;;4977206;28;8878;-65
2022/09/13 05:14:38;;;;;;;;;9.00;9.00;24.70;99.90;;;;;;4949873;28;8915;-67
2022/09/13 05:17:11;;;;;;;;;10.25;10.25;24.80;99.90;;;;;;4955233;28;9020;-68
2022/09/13 05:19:43;;;;;;;;;11.00;11.00;25.00;99.90;;;;;;4953778;28;9561;-67
2022/09/13 05:22:13;;;;;;;;;8.25;8.25;25.00;99.90;;;;;;4953811;28;8867;-67
2022/09/13 05:24:44;;;;;;;;;7.75;7.75;25.00;99.90;;;;;;4951649;28;8866;-67
2022/09/13 05:27:16;;;;;;;;;9.00;9.00;25.00;99.90;;;;;;4956315;28;8878;-67
2022/09/13 05:29:46;;;;;;;;;9.00;9.00;24.90;99.90;;;;;;4987440;28;8839;-67
2022/09/13 05:32:17;;;;;;;;;12.00;11.00;25.10;99.90;;;;;;4984982;28;8855;-67
2022/09/13 05:34:48;;;;;;;;;10.00;10.00;25.00;99.90;;;;;;4980182;28;8873;-65
2022/09/13 05:37:19;;;;;;;;;12.00;12.00;25.00;99.90;;;;;;4957621;28;8863;-66
2022/09/13 05:39:50;;;;;;;;;10.50;10.50;24.90;99.90;;;;;;4959471;28;8998;-67
2022/09/13 05:42:39;;;;;;;;;11.25;11.25;24.80;99.90;;;;;;4959701;28;8857;-65
2022/09/13 05:45:09;;;;;;;;;9.00;9.00;24.60;99.90;;;;;;4955005;28;8851;-64
2022/09/13 05:47:44;;;;;;;;;10.75;10.75;24.50;99.90;;;;;;4956763;28;8874;-65
2022/09/13 05:50:15;;;;;;;;;8.50;8.50;24.40;99.90;;;;;;4953018;28;9034;-67
2022/09/13 05:53:06;;;;;;;;;11.50;11.50;24.40;99.90;;;;;;4960543;28;8858;-67
2022/09/13 05:55:37;;;;;;;;;10.75;10.75;24.30;99.90;;;;;;4982010;28;8877;-67
2022/09/13 05:58:10;;;;;;;;;12.00;12.00;24.30;99.90;;;;;;4961440;28;8847;-68
2022/09/13 06:00:41;;;;;;;;;10.00;10.00;24.30;99.90;;;;;;4989142;28;8870;-65
2022/09/13 06:03:12;;;;;;;;;11.25;11.25;24.30;99.90;;;;;;4956325;28;9017;-65
2022/09/13 06:05:46;;;;;;;;;10.25;10.25;24.30;99.90;;;;;;4955573;28;8997;-67
2022/09/13 06:08:17;;;;;;;;;10.75;10.75;24.20;99.90;;;;;;4952793;28;8845;-68
2022/09/13 06:10:55;;;;;;;;;10.00;10.00;24.20;99.90;;;;;;4957180;28;8859;-68
2022/09/13 06:13:25;;;;;;;;;10.50;10.50;24.30;99.90;;;;;;4955182;28;8866;-67
2022/09/13 06:16:01;;;;;;;;;9.50;9.50;24.40;99.90;;;;;;4952273;28;8850;-65
2022/09/13 06:18:34;;;;;;;;;10.50;10.50;24.50;99.90;;;;;;4971440;28;8874;-65
2022/09/13 06:21:16;;;;;;;;;10.00;10.00;24.60;99.90;;;;;;4957491;28;8835;-68
2022/09/13 06:23:54;;;;;;;;;11.00;11.00;24.60;99.90;;;;;;4951243;28;8866;-67
2022/09/13 06:26:26;;;;;;;;;10.50;10.50;24.60;99.90;;;;;;4983556;28;9649;-66
2022/09/13 06:28:57;;;;;;;;;9.75;9.75;24.50;99.90;;;;;;4955895;28;8847;-67
2022/09/13 06:31:29;;;;;;;;;10.00;9.50;24.30;99.90;;;;;;4953104;28;8857;-67
2022/09/13 06:34:02;;;;;;;;;10.25;10.25;24.20;99.90;;;;;;4957188;28;8876;-67
2022/09/13 06:36:36;;;;;;;;;9.75;9.75;24.20;99.90;;;;;;4950847;28;8861;-66
2022/09/13 06:39:06;;;;;;;;;9.25;9.25;24.30;99.90;;;;;;4983134;28;8917;-68
2022/09/13 06:41:38;;;;;;;;;9.50;9.50;24.30;99.90;;;;;;4964797;28;8882;-68
2022/09/13 06:44:09;;;;;;;;;11.00;11.00;24.30;99.90;;;;;;4952386;28;8838;-67
2022/09/13 06:46:39;;;;;;;;;10.00;10.00;24.10;99.90;;;;;;4955191;28;8887;-64
2022/09/13 06:49:10;;;;;;;;;9.25;9.25;24.00;99.90;;;;;;4964642;28;8847;-64
2022/09/13 06:51:43;;;;;;;;;10.75;10.75;23.90;99.90;;;;;;4971528;28;8874;-68
2022/09/13 06:54:15;;;;;;;;;10.25;10.25;23.80;99.90;;;;;;4956748;28;8901;-66
2022/09/13 06:56:47;;;;;;;;;9.50;9.50;23.70;99.90;;;;;;4954643;28;8861;-67
2022/09/13 06:59:18;;;;;;;;;10.50;10.50;23.80;99.90;;;;;;4970509;28;8843;-67
2022/09/13 07:01:49;;;;;;;;;11.00;11.00;23.90;99.90;;;;;;4957173;28;9631;-65
2022/09/13 07:04:20;;;;;;;;;12.00;12.00;23.80;99.90;;;;;;4950790;28;8846;-66
2022/09/13 07:06:51;;;;;;;;;11.75;11.75;23.70;99.90;;;;;;4938557;28;8867;-67
2022/09/13 07:09:22;;;;;;;;;10.50;10.50;23.60;99.90;;;;;;4978906;28;8917;-67
2022/09/13 07:11:55;;;;;;;;;9.25;9.25;23.60;99.90;;;;;;4970347;28;8858;-67
2022/09/13 07:14:28;;;;;;;;;13.50;13.50;23.60;99.90;;;;;;4958634;28;8859;-67
2022/09/13 07:17:00;;;;;;;;;10.75;10.75;23.50;99.90;;;;;;4959650;28;8839;-68
2022/09/13 07:19:31;;;;;;;;;6.25;6.25;23.50;99.90;;;;;;4958708;28;8878;-65
2022/09/13 07:22:03;;;;;;;;;12.25;12.25;23.50;99.90;;;;;;4956874;28;8823;-65
2022/09/13 07:24:33;;;;;;;;;9.00;9.00;23.40;99.90;;;;;;4956918;28;8878;-66
2022/09/13 07:27:04;;;;;;;;;11.00;11.00;23.40;99.90;;;;;;4967485;28;8862;-66
2022/09/13 07:29:38;;;;;;;;;9.00;9.00;23.30;99.90;;;;;;4958726;28;8874;-67
2022/09/13 07:32:08;;;;;;;;;9.25;9.25;23.30;99.90;;;;;;4951031;28;9301;-64
2022/09/13 07:34:38;;;;;;;;;9.75;9.75;23.30;99.90;;;;;;4960116;28;8856;-65
2022/09/13 07:37:09;;;;;;;;;10.25;10.25;23.20;99.90;;;;;;4950303;28;9749;-65
2022/09/13 07:39:42;;;;;;;;;11.25;11.25;23.20;99.90;;;;;;4952626;28;10057;-65
2022/09/13 07:42:12;;;;;;;;;11.50;11.50;23.10;99.90;;;;;;4953410;28;8874;-65
2022/09/13 07:44:42;;;;;;;;;11.50;11.50;23.20;99.90;;;;;;4957680;28;9013;-65
2022/09/13 07:47:15;;;;;;;;;10.25;10.25;23.40;99.90;;;;;;4967307;28;8843;-65
2022/09/13 07:49:46;;;;;;;;;12.50;10.75;23.50;99.90;;;;;;4956881;28;9577;-66
2022/09/13 07:52:18;;;;;;;;;11.00;10.00;23.60;99.90;;;;;;4957258;28;8851;-67
2022/09/13 07:54:49;;;;;;;;;11.00;11.00;23.80;99.90;;;;;;4958788;28;8889;-66
2022/09/13 07:57:20;;;;;;;;;10.75;10.75;23.80;99.90;;;;;;4977132;28;8862;-66
2022/09/13 07:59:52;;;;;;;;;10.75;10.75;23.90;99.90;;;;;;4956390;28;9012;-65
2022/09/13 08:02:22;;;;;;;;;11.75;11.75;23.70;99.90;;;;;;4951957;28;8890;-65
2022/09/13 08:04:53;;;;;;;;;13.25;11.75;23.40;99.90;;;;;;4972018;28;8899;-68
2022/09/13 08:07:24;;;;;;;;;10.75;10.75;23.30;99.90;;;;;;4958410;28;8847;-67
2022/09/13 08:09:55;;;;;;;;;11.50;11.50;23.30;99.90;;;;;;4953514;28;8908;-66
2022/09/13 08:12:29;;;;;;;;;10.00;10.00;23.20;99.90;;;;;;4958515;28;8864;-65
2022/09/13 08:15:01;;;;;;;;;12.25;10.50;23.20;99.90;;;;;;4969347;28;9027;-64
2022/09/13 08:17:32;;;;;;;;;10.25;10.25;23.20;99.90;;;;;;4979139;28;8871;-65
2022/09/13 08:20:03;;;;;;;;;10.25;10.25;23.20;99.90;;;;;;4952913;28;8913;-65
2022/09/13 08:22:36;;;;;;;;;11.75;11.75;23.20;99.90;;;;;;4954363;28;8882;-64
2022/09/13 08:25:08;;;;;;;;;13.00;13.00;23.20;99.90;;;;;;4953148;28;8889;-64
2022/09/13 08:27:42;;;;;;;;;8.50;8.50;23.20;99.90;;;;;;4953814;28;8859;-65
2022/09/13 08:30:14;;;;;;;;;11.75;11.75;23.10;99.90;;;;;;4952903;28;8897;-64
2022/09/13 08:32:44;;;;;;;;;12.25;12.25;23.10;99.90;;;;;;4953140;28;8895;-64
2022/09/13 08:35:14;;;;;;;;;9.75;9.75;23.00;99.90;;;;;;4983403;28;10014;-67
2022/09/13 08:37:47;;;;;;;;;9.25;9.25;23.20;99.90;;;;;;4981519;28;8851;-67
2022/09/13 08:40:18;;;;;;;;;11.00;11.00;23.10;99.90;;;;;;4946906;28;8862;-67
2022/09/13 08:43:01;;;;;;;;;10.75;10.75;23.00;99.90;;;;;;4971380;28;9013;-70
2022/09/13 08:45:32;;;;;;;;;11.75;11.75;23.00;99.90;;;;;;4952673;28;8859;-67
2022/09/13 08:48:19;;;;;;;;;10.25;10.25;23.00;99.90;;;;;;4973396;28;8855;-67
2022/09/13 08:50:53;;;;;;;;;12.25;12.25;23.00;99.90;;;;;;4964253;28;8835;-65
2022/09/13 08:53:34;;;;;;;;;12.25;12.25;22.90;99.90;;;;;;4956509;28;8851;-65
2022/09/13 08:56:14;;;;;;;;;10.00;10.00;22.70;99.90;;;;;;4972609;28;8852;-67
2022/09/13 08:59:05;;;;;;;;;12.75;12.75;22.70;99.90;;;;;;4950916;28;8860;-66
2022/09/13 09:01:59;;;;;;;;;14.00;14.00;22.50;99.90;;;;;;4958559;28;8877;-67
2022/09/13 09:04:46;;;;;;;;;13.00;12.50;22.40;99.90;;;;;;4952278;28;8858;-66
2022/09/13 09:07:27;;;;;;;;;11.75;11.75;22.50;99.90;;;;;;4973618;28;8858;-68
2022/09/13 09:10:25;;;;;;;;;12.75;12.75;22.50;99.90;;;;;;4984983;28;8839;-67
2022/09/13 09:13:06;;;;;;;;;12.25;12.25;22.40;99.90;;;;;;4956215;28;8867;-67
2022/09/13 09:15:45;;;;;;;;;13.75;12.25;22.30;99.90;;;;;;4977405;28;8874;-65
2022/09/13 09:18:16;;;;;;;;;12.50;12.50;22.30;99.90;;;;;;4950239;28;8882;-64
2022/09/13 09:20:55;;;;;;;;;13.00;13.00;22.30;99.90;;;;;;4959084;28;8846;-68
2022/09/13 09:23:43;;;;;;;;;14.00;14.00;22.40;99.90;;;;;;4954577;28;8946;-68
2022/09/13 09:26:22;;;;;;;;;12.75;11.25;22.40;99.90;;;;;;4963492;28;8858;-66
2022/09/13 09:29:16;;;;;;;;;14.75;13.00;22.30;99.90;;;;;;4957647;28;8882;-68
2022/09/13 09:32:08;;;;;;;;;12.25;12.25;22.20;99.90;;;;;;4957795;28;8823;-67
2022/09/13 09:35:00;;;;;;;;;10.75;10.75;22.20;99.90;;;;;;4960273;28;8843;-67
2022/09/13 09:37:32;;;;;;;;;13.50;13.50;22.10;99.90;;;;;;4986905;28;9791;-66
2022/09/13 09:40:12;;;;;;;;;11.50;11.50;22.00;99.90;;;;;;4956727;28;8909;-67
2022/09/13 09:42:49;;;;;;;;;11.00;11.00;22.30;99.90;;;;;;4981830;28;8843;-67
2022/09/13 09:45:36;;;;;;;;;12.75;12.75;22.30;99.90;;;;;;4960966;28;8886;-67
2022/09/13 09:48:14;;;;;;;;;12.25;12.25;22.20;99.90;;;;;;4956653;28;8888;-68
2022/09/13 09:50:51;;;;;;;;;11.50;11.50;22.10;99.90;;;;;;4956099;28;8870;-65
2022/09/13 09:53:38;;;;;;;;;11.00;11.00;22.00;99.90;;;;;;4970743;28;8898;-65
2022/09/13 09:56:24;;;;;;;;;14.25;14.25;22.20;99.90;;;;;;4960205;28;8866;-65
2022/09/13 09:58:54;;;;;;;;;11.00;10.00;22.20;99.90;;;;;;4980362;28;8915;-65
2022/09/13 10:01:37;;;;;;;;;11.75;10.25;22.30;99.90;;;;;;4963232;28;9004;-66
2022/09/13 10:04:13;;;;;;;;;13.00;12.25;22.20;99.90;;;;;;4954566;28;9771;-64
2022/09/13 10:06:47;;;;;;;;;9.00;9.00;22.00;99.90;;;;;;4984746;28;8918;-66
2022/09/13 10:09:21;;;;;;;;;14.25;12.50;22.00;99.90;;;;;;4992053;28;8900;-68
2022/09/13 10:11:57;;;;;;;;;12.50;12.50;22.00;99.90;;;;;;4959986;28;9667;-65
2022/09/13 10:14:36;;;;;;;;;11.00;11.00;22.00;99.90;;;;;;4986365;28;8884;-65
2022/09/13 10:17:25;;;;;;;;;12.50;12.50;21.80;99.90;;;;;;4955255;28;8893;-64
2022/09/13 10:20:03;;;;;;;;;12.25;12.25;21.80;99.90;;;;;;4953519;28;8842;-68
2022/09/13 10:22:35;;;;;;;;;11.75;11.75;21.80;99.90;;;;;;4970674;28;8843;-67
2022/09/13 10:25:28;;;;;;;;;12.25;12.00;21.90;99.90;;;;;;4954447;28;8867;-67
2022/09/13 10:28:00;;;;;;;;;11.00;11.00;22.00;99.90;;;;;;4982163;28;8854;-67
2022/09/13 10:30:38;;;;;;;;;11.00;11.00;21.90;99.90;;;;;;4939271;28;8899;-66
2022/09/13 10:33:28;;;;;;;;;12.50;12.50;21.80;99.90;;;;;;4955919;28;8896;-64
2022/09/13 10:36:26;;;;;;;;;10.75;10.75;21.80;99.90;;;;;;4973458;28;8847;-67
2022/09/13 10:39:20;;;;;;;;;13.00;13.00;21.70;99.90;;;;;;4959438;28;8883;-67
2022/09/13 10:42:06;;;;;;;;;12.25;12.25;21.70;99.90;;;;;;4968514;28;8870;-68
2022/09/13 10:44:46;;;;;;;;;11.50;11.50;21.70;99.90;;;;;;4960580;28;8997;-64
2022/09/13 10:47:24;;;;;;;;;10.50;10.50;21.70;99.90;;;;;;4957442;28;8877;-63
2022/09/13 10:50:09;;;;;;;;;11.50;11.50;21.60;99.90;;;;;;4956475;28;8858;-65
2022/09/13 10:52:51;;;;;;;;;10.50;10.50;21.60;99.90;;;;;;4981535;28;8835;-65
2022/09/13 10:55:39;;;;;;;;;10.25;10.25;21.60;99.90;;;;;;4981343;28;8900;-66
2022/09/13 10:58:10;;;;;;;;;7.25;7.25;21.50;99.90;;;;;;4956577;28;8831;-67
2022/09/13 11:01:05;;;;;;;;;14.25;12.25;21.50;99.90;;;;;;4951649;28;8881;-67
2022/09/13 11:03:58;;;;;;;;;11.00;11.00;21.60;99.90;;;;;;4982599;28;8851;-70
2022/09/13 11:06:57;;;;;;;;;6.75;6.75;21.80;99.90;;;;;;4955502;28;8918;-66
2022/09/13 11:09:53;;;;;;;;;7.25;7.25;21.90;99.90;;;;;;4953850;28;8874;-66
2022/09/13 11:12:37;;;;;;;;;10.25;10.00;22.20;99.90;;;;;;4956624;28;8897;-65
2022/09/13 11:15:29;;;;;;;;;9.50;9.50;22.10;99.90;;;;;;4953385;28;8846;-67
2022/09/13 11:18:16;;;;;;;;;10.50;10.50;22.00;99.90;;;;;;4951690;28;8850;-68
2022/09/13 11:21:23;;;;;;;;;11.25;11.25;22.10;99.90;;;;;;4950415;28;8859;-65
2022/09/13 11:24:22;;;;;;;;;12.00;12.00;22.10;99.90;;;;;;4950458;28;9580;-65
2022/09/13 11:27:11;;;;;;;;;11.50;11.50;22.00;99.90;;;;;;4934997;28;8850;-68
2022/09/13 11:30:04;;;;;;;;;10.00;10.00;22.00;99.90;;;;;;4960373;28;8877;-67
2022/09/13 11:32:57;;;;;;;;;11.50;11.50;21.80;99.90;;;;;;4980470;28;8878;-67
2022/09/13 11:35:36;;;;;;;;;12.00;12.00;21.70;99.90;;;;;;4939005;28;8897;-66
2022/09/13 11:38:31;;;;;;;;;12.00;12.00;21.70;99.90;;;;;;4957584;28;8870;-65
2022/09/13 11:41:29;;;;;;;;;11.00;11.00;21.60;99.90;;;;;;4983631;28;8842;-66
2022/09/13 11:44:32;;;;;;;;;9.25;9.25;21.70;99.90;;;;;;4980468;28;8873;-65
2022/09/13 11:47:24;;;;;;;;;11.00;11.00;21.60;99.90;;;;;;4955005;28;8913;-65
2022/09/13 11:50:09;;;;;;;;;10.50;10.50;21.50;99.90;;;;;;4957793;28;8879;-65
2022/09/13 11:53:12;;;;;;;;;11.50;11.50;21.50;99.90;;;;;;4949295;28;8835;-65
2022/09/13 11:55:54;;;;;;;;;11.50;11.50;21.60;99.90;;;;;;4951089;28;8885;-67
2022/09/13 11:58:43;;;;;;;;;10.25;10.25;21.70;99.90;;;;;;4954490;28;8878;-68
2022/09/13 12:01:32;;;;;;;;;11.00;11.00;22.00;99.90;;;;;;4967484;28;8874;-67
2022/09/13 12:04:21;;;;;;;;;12.50;12.50;21.90;99.90;;;;;;4954665;28;9611;-67
2022/09/13 12:07:02;;;;;;;;;12.25;12.25;21.80;99.90;;;;;;4954637;28;8901;-67
2022/09/13 12:09:46;;;;;;;;;7.25;7.25;21.70;99.90;;;;;;4951212;28;8870;-65
2022/09/13 12:12:24;;;;;;;;;12.00;12.00;21.70;99.90;;;;;;4970204;28;8889;-65
2022/09/13 12:14:59;;;;;;;;;11.75;11.75;21.70;99.90;;;;;;4949492;28;8897;-65
2022/09/13 12:17:47;;;;;;;;;9.75;9.75;21.60;99.90;;;;;;4955802;28;8835;-66
2022/09/13 12:20:38;;;;;;;;;12.00;12.00;21.50;99.90;;;;;;4954525;28;8874;-67
2022/09/13 12:23:31;;;;;;;;;12.50;12.50;21.40;99.90;;;;;;4953286;28;8871;-66
2022/09/13 12:26:24;;;;;;;;;13.75;10.25;21.60;99.90;;;;;;4950077;28;8879;-67
2022/09/13 12:29:26;;;;;;;;;14.00;14.00;21.80;99.90;;;;;;4981637;28;8859;-68
2022/09/13 12:32:02;;;;;;;;;11.00;11.00;22.00;99.90;;;;;;4967428;28;9048;-67
2022/09/13 12:35:06;;;;;;;;;11.75;11.75;21.80;99.90;;;;;;4982602;28;9481;-66
2022/09/13 12:37:55;;;;;;;;;13.50;12.50;21.80;99.90;;;;;;4984482;28;8846;-67
2022/09/13 12:40:50;;;;;;;;;11.00;11.00;22.00;99.90;;;;;;4984415;28;8855;-68
2022/09/13 12:43:52;;;;;;;;;12.00;12.00;22.00;99.90;;;;;;4952842;28;8874;-67
2022/09/13 12:46:25;;;;;;;;;12.50;10.75;22.10;99.90;;;;;;4959434;28;8858;-67
2022/09/13 12:49:24;;;;;;;;;10.00;8.67;22.10;99.90;;;;;;4976790;28;8835;-67
2022/09/13 12:52:24;;;;;;;;;14.00;13.25;22.10;99.90;;;;;;4954637;28;9396;-65
2022/09/13 12:55:13;;;;;;;;;11.75;11.75;22.20;99.90;;;;;;4951967;28;8892;-64
2022/09/13 12:58:38;;;;;;;;;9.75;9.75;22.20;99.90;;;;;;4952713;28;8868;-64
2022/09/13 13:01:15;;;;;;;;;6.50;6.50;22.30;99.90;;;;;;4953796;28;9080;-68
2022/09/13 13:03:55;;;;;;;;;14.00;12.75;22.30;99.90;;;;;;4952502;28;8851;-67
2022/09/13 13:06:49;;;;;;;;;11.25;11.25;22.30;99.90;;;;;;4968844;28;8877;-65
2022/09/13 13:09:45;;;;;;;;;12.00;11.00;22.30;99.90;;;;;;4940970;28;8847;-66
2022/09/13 13:12:38;;;;;;;;;11.25;11.25;22.30;99.90;;;;;;4956534;28;8863;-68
2022/09/13 13:15:15;;;;;;;;;14.75;14.75;22.30;99.90;;;;;;4952484;28;8901;-67
2022/09/13 13:17:50;;;;;;;;;11.25;11.25;22.30;99.90;;;;;;4951249;28;8865;-68
2022/09/13 13:20:45;;;;;;;;;15.50;12.50;22.40;99.90;;;;;;4954578;28;8851;-63
2022/09/13 13:23:36;;;;;;;;;12.00;12.00;22.50;99.90;;;;;;4967700;28;8893;-65
2022/09/13 13:26:12;;;;;;;;;13.25;13.25;22.30;99.90;;;;;;4953596;28;8886;-65
2022/09/13 13:28:46;;;;;;;;;10.25;10.25;22.50;99.90;;;;;;4948780;28;8858;-65
2022/09/13 13:31:33;;;;;;;;;11.25;11.25;22.50;99.90;;;;;;4978629;28;8847;-67
2022/09/13 13:34:14;;;;;;;;;13.00;13.00;22.60;99.90;;;;;;4950730;28;8878;-67
2022/09/13 13:36:49;;;;;;;;;11.50;11.50;22.60;99.90;;;;;;4952132;28;8874;-65
2022/09/13 13:39:25;;;;;;;;;11.25;11.25;22.60;99.90;;;;;;4966372;28;8861;-65
2022/09/13 13:42:20;;;;;;;;;11.25;11.25;22.60;99.90;;;;;;4949721;28;8870;-67
2022/09/13 13:45:14;;;;;;;;;11.75;11.75;22.70;99.90;;;;;;4954784;28;8881;-65
2022/09/13 13:48:09;;;;;;;;;10.50;10.50;22.70;99.90;;;;;;4953847;28;9002;-66
2022/09/13 13:51:12;;;;;;;;;10.75;10.75;22.80;99.90;;;;;;4953914;28;9635;-68